createdAt,value
2018-09-26T00:00:19.426Z,26.70
2018-09-26T00:02:28.610Z,25.97
2018-09-26T00:04:34.859Z,24.20
2018-09-26T00:06:40.710Z,23.47
2018-09-26T00:08:46.041Z,24.67
2018-09-26T00:10:51.635Z,23.80
2018-09-26T00:12:56.772Z,25.23
2018-09-26T00:15:02.157Z,21.43
2018-09-26T00:17:07.559Z,23.57
2018-09-26T00:19:12.829Z,24.17
2018-09-26T00:21:18.276Z,22.97
2018-09-26T00:23:23.695Z,21.63
2018-09-26T00:25:29.016Z,22.37
2018-09-26T00:27:34.601Z,22.07
2018-09-26T00:29:40.074Z,21.90
2018-09-26T00:31:45.663Z,21.90
2018-09-26T00:33:51.137Z,20.90
2018-09-26T00:35:56.350Z,20.80
2018-09-26T00:38:01.732Z,20.57
2018-09-26T00:40:06.915Z,22.43
2018-09-26T00:42:12.184Z,20.07
2018-09-26T00:44:17.271Z,20.37
2018-09-26T00:46:22.528Z,20.37
2018-09-26T00:48:27.567Z,19.63
2018-09-26T00:50:32.567Z,19.30
2018-09-26T00:52:37.790Z,20.87
2018-09-26T00:54:42.730Z,18.57
2018-09-26T00:56:47.668Z,19.03
2018-09-26T00:58:52.725Z,18.57
2018-09-26T01:00:57.786Z,19.00
2018-09-26T01:03:02.977Z,19.43
2018-09-26T01:05:08.057Z,17.53
2018-09-26T01:07:13.640Z,19.33
2018-09-26T01:09:19.054Z,16.90
2018-09-26T01:11:24.580Z,18.60
2018-09-26T01:13:30.006Z,18.93
2018-09-26T01:15:35.543Z,18.07
2018-09-26T01:17:40.935Z,17.60
2018-09-26T01:19:46.648Z,17.50
2018-09-26T01:21:51.822Z,17.83
2018-09-26T01:23:57.270Z,16.40
2018-09-26T01:26:02.611Z,17.10
2018-09-26T01:28:08.103Z,18.03
2018-09-26T01:30:13.952Z,15.53
2018-09-26T01:32:19.487Z,17.43
2018-09-26T01:34:24.846Z,16.40
2018-09-26T01:36:30.246Z,17.07
2018-09-26T01:38:36.469Z,17.10
2018-09-26T01:40:41.866Z,16.70
2018-09-26T01:42:47.313Z,18.10
2018-09-26T01:44:52.664Z,16.47
2018-09-26T01:46:58.591Z,15.50
2018-09-26T01:49:04.082Z,15.03
2018-09-26T01:51:08.973Z,16.70
2018-09-26T01:53:14.585Z,15.37
2018-09-26T01:55:19.627Z,16.53
2018-09-26T01:57:25.130Z,16.07
2018-09-26T01:59:30.850Z,15.90
2018-09-26T02:01:36.026Z,15.90
2018-09-26T02:03:41.336Z,15.67
2018-09-26T02:05:46.849Z,14.77
2018-09-26T02:07:52.659Z,15.30
2018-09-26T02:09:59.225Z,14.77
2018-09-26T02:12:04.457Z,15.47
2018-09-26T02:14:09.558Z,15.20
2018-09-26T02:16:14.742Z,15.57
2018-09-26T02:18:20.408Z,15.10
2018-09-26T02:20:25.848Z,15.70
2018-09-26T02:22:30.849Z,15.03
2018-09-26T02:24:36.238Z,13.50
2018-09-26T02:26:41.931Z,15.43
2018-09-26T02:28:46.971Z,14.30
2018-09-26T02:30:52.369Z,14.37
2018-09-26T02:32:57.500Z,14.40
2018-09-26T02:35:02.708Z,13.93
2018-09-26T02:37:10.512Z,13.40
2018-09-26T02:39:15.912Z,14.57
2018-09-26T02:41:21.125Z,15.10
2018-09-26T02:43:26.792Z,14.50
2018-09-26T02:45:32.138Z,15.10
2018-09-26T02:47:37.221Z,14.23
2018-09-26T02:49:42.809Z,12.73
2018-09-26T02:51:48.101Z,14.33
2018-09-26T02:53:53.246Z,15.47
2018-09-26T02:55:58.809Z,13.77
2018-09-26T02:58:04.940Z,14.60
2018-09-26T03:00:10.586Z,14.40
2018-09-26T03:02:16.029Z,13.80
2018-09-26T03:04:21.212Z,13.73
2018-09-26T03:06:26.286Z,13.90
2018-09-26T03:08:31.681Z,14.50
2018-09-26T03:10:36.913Z,13.80
2018-09-26T03:12:42.094Z,14.10
2018-09-26T03:14:47.249Z,13.33
2018-09-26T03:16:52.573Z,13.63
2018-09-26T03:18:57.900Z,14.00
2018-09-26T03:21:03.241Z,12.40
2018-09-26T03:23:08.914Z,12.93
2018-09-26T03:25:14.363Z,13.63
2018-09-26T03:27:19.456Z,12.77
2018-09-26T03:29:25.116Z,13.20
2018-09-26T03:31:30.153Z,13.67
2018-09-26T03:33:35.466Z,12.87
2018-09-26T03:35:40.802Z,12.33
2018-09-26T03:37:46.085Z,12.80
2018-09-26T03:39:51.677Z,11.93
2018-09-26T03:41:56.940Z,12.13
2018-09-26T03:44:02.612Z,12.40
2018-09-26T03:46:08.167Z,12.17
2018-09-26T03:48:14.502Z,12.50
2018-09-26T03:50:19.687Z,12.40
2018-09-26T03:52:25.459Z,12.80
2018-09-26T03:54:30.286Z,12.80
2018-09-26T03:56:35.737Z,12.77
2018-09-26T03:58:40.781Z,11.47
2018-09-26T04:00:46.548Z,12.17
2018-09-26T04:02:51.991Z,12.87
2018-09-26T04:04:57.123Z,13.30
2018-09-26T04:07:02.657Z,13.70
2018-09-26T04:09:08.007Z,12.50
2018-09-26T04:11:13.214Z,13.53
2018-09-26T04:13:18.572Z,12.13
2018-09-26T04:15:23.713Z,11.83
2018-09-26T04:17:28.821Z,11.90
2018-09-26T04:19:34.434Z,13.00
2018-09-26T04:21:39.527Z,12.50
2018-09-26T04:23:44.857Z,11.57
2018-09-26T04:25:50.105Z,11.80
2018-09-26T04:27:55.505Z,11.10
2018-09-26T04:30:00.994Z,12.27
2018-09-26T04:32:06.560Z,12.13
2018-09-26T04:34:11.755Z,11.20
2018-09-26T04:36:16.725Z,11.73
2018-09-26T04:38:21.899Z,12.60
2018-09-26T04:40:26.862Z,12.03
2018-09-26T04:42:32.199Z,11.50
2018-09-26T04:44:37.619Z,10.80
2018-09-26T04:46:42.902Z,11.10
2018-09-26T04:48:48.240Z,12.10
2018-09-26T04:50:53.619Z,11.53
2018-09-26T04:52:58.832Z,12.60
2018-09-26T04:55:04.236Z,10.70
2018-09-26T04:57:11.125Z,11.50
2018-09-26T04:59:16.417Z,11.17
2018-09-26T05:01:21.798Z,10.47
2018-09-26T05:03:27.269Z,10.90
2018-09-26T05:05:32.446Z,12.03
2018-09-26T05:07:38.261Z,11.60
2018-09-26T05:09:43.867Z,11.40
2018-09-26T05:11:48.925Z,12.57
2018-09-26T05:13:54.156Z,11.30
2018-09-26T05:16:00.155Z,11.03
2018-09-26T05:18:05.791Z,11.47
2018-09-26T05:20:11.335Z,11.10
2018-09-26T05:22:16.497Z,10.23
2018-09-26T05:24:21.883Z,10.10
2018-09-26T05:26:27.282Z,11.30
2018-09-26T05:28:32.988Z,10.90
2018-09-26T05:30:38.428Z,10.50
2018-09-26T05:32:43.653Z,11.10
2018-09-26T05:34:48.789Z,11.07
2018-09-26T05:36:54.220Z,10.50
2018-09-26T05:38:59.564Z,10.67
2018-09-26T05:41:04.470Z,10.53
2018-09-26T05:43:09.655Z,10.23
2018-09-26T05:45:14.917Z,10.33
2018-09-26T05:47:20.178Z,10.97
2018-09-26T05:49:25.231Z,11.43
2018-09-26T05:51:30.348Z,9.60
2018-09-26T05:53:35.430Z,10.87
2018-09-26T05:55:40.756Z,10.70
2018-09-26T05:57:46.660Z,10.43
2018-09-26T05:59:52.243Z,10.80
2018-09-26T06:01:58.798Z,10.67
2018-09-26T06:04:04.269Z,11.77
2018-09-26T06:06:09.760Z,10.07
2018-09-26T06:08:15.019Z,9.93
2018-09-26T06:10:21.288Z,10.90
2018-09-26T06:12:26.810Z,10.90
2018-09-26T06:14:32.225Z,10.20
2018-09-26T06:16:37.383Z,10.70
2018-09-26T06:18:43.128Z,10.90
2018-09-26T06:20:48.772Z,9.60
2018-09-26T06:22:53.979Z,10.13
2018-09-26T06:24:59.244Z,10.37
2018-09-26T06:27:05.048Z,10.10
2018-09-26T06:29:10.658Z,10.10
2018-09-26T06:31:16.025Z,10.40
2018-09-26T06:33:21.239Z,10.63
2018-09-26T06:35:26.622Z,10.80
2018-09-26T06:37:32.624Z,10.93
2018-09-26T06:39:38.219Z,9.60
2018-09-26T06:41:43.979Z,9.80
2018-09-26T06:43:49.238Z,9.50
2018-09-26T06:45:54.605Z,10.17
2018-09-26T06:47:59.895Z,10.20
2018-09-26T06:50:05.081Z,10.50
2018-09-26T06:52:10.377Z,8.97
2018-09-26T06:54:15.320Z,9.77
2018-09-26T06:56:20.546Z,10.20
2018-09-26T06:58:25.807Z,10.73
2018-09-26T07:00:31.311Z,9.20
2018-09-26T07:02:36.885Z,9.47
2018-09-26T07:04:42.244Z,9.20
2018-09-26T07:06:47.716Z,9.73
2018-09-26T07:08:53.156Z,8.27
2018-09-26T07:10:58.692Z,9.60
2018-09-26T07:13:03.938Z,9.87
2018-09-26T07:15:09.161Z,9.93
2018-09-26T07:17:14.415Z,9.60
2018-09-26T07:19:20.038Z,9.47
2018-09-26T07:21:25.770Z,10.00
2018-09-26T07:23:31.701Z,8.90
2018-09-26T07:25:36.836Z,8.87
2018-09-26T07:27:42.426Z,9.00
2018-09-26T07:29:47.644Z,10.13
2018-09-26T07:31:53.081Z,9.73
2018-09-26T07:33:58.710Z,9.77
2018-09-26T07:36:04.297Z,8.97
2018-09-26T07:38:09.647Z,9.90
2018-09-26T07:40:15.083Z,8.70
2018-09-26T07:42:20.645Z,8.60
2018-09-26T07:44:26.085Z,9.30
2018-09-26T07:46:31.170Z,9.30
2018-09-26T07:48:36.525Z,9.50
2018-09-26T07:50:41.744Z,9.10
2018-09-26T07:52:47.367Z,9.67
2018-09-26T07:54:52.700Z,9.10
2018-09-26T07:56:58.140Z,10.13
2018-09-26T07:59:03.665Z,9.03
2018-09-26T08:01:08.830Z,8.60
2018-09-26T08:03:14.201Z,8.73
2018-09-26T08:05:19.909Z,9.17
2018-09-26T08:07:25.169Z,8.37
2018-09-26T08:09:30.422Z,8.47
2018-09-26T08:11:35.864Z,9.10
2018-09-26T08:13:41.584Z,8.87
2018-09-26T08:15:46.853Z,8.10
2018-09-26T08:17:52.925Z,8.60
2018-09-26T08:19:57.734Z,9.00
2018-09-26T08:22:02.501Z,8.30
2018-09-26T08:24:07.418Z,9.47
2018-09-26T08:26:12.784Z,8.60
2018-09-26T08:28:17.704Z,8.40
2018-09-26T08:30:23.453Z,8.50
2018-09-26T08:32:28.967Z,8.00
2018-09-26T08:34:34.250Z,8.93
2018-09-26T08:36:39.608Z,8.17
2018-09-26T08:38:44.808Z,8.00
2018-09-26T08:40:50.017Z,8.47
2018-09-26T08:42:55.344Z,8.10
2018-09-26T08:45:00.496Z,7.70
2018-09-26T08:47:05.754Z,9.47
2018-09-26T08:49:11.112Z,9.70
2018-09-26T08:51:16.211Z,8.07
2018-09-26T08:53:21.733Z,8.77
2018-09-26T08:55:27.162Z,8.80
2018-09-26T08:57:32.220Z,8.60
2018-09-26T08:59:37.181Z,9.03
2018-09-26T09:01:46.393Z,10.60
2018-09-26T09:03:51.452Z,9.20
2018-09-26T09:05:56.603Z,10.00
2018-09-26T09:08:01.934Z,9.60
2018-09-26T09:10:06.957Z,16.30
2018-09-26T09:12:12.156Z,27.23
2018-09-26T09:14:17.400Z,17.93
2018-09-26T09:16:22.751Z,15.70
2018-09-26T09:18:28.172Z,15.00
2018-09-26T09:20:33.716Z,14.47
2018-09-26T09:22:39.082Z,15.83
2018-09-26T09:24:44.932Z,14.63
2018-09-26T09:26:50.575Z,14.90
2018-09-26T09:28:56.409Z,16.90
2018-09-26T09:31:02.519Z,19.30
2018-09-26T09:33:08.377Z,14.53
2018-09-26T09:35:14.474Z,15.27
2018-09-26T09:37:20.582Z,14.93
2018-09-26T09:39:25.928Z,14.73
2018-09-26T09:41:31.653Z,15.17
2018-09-26T09:43:37.392Z,13.63
2018-09-26T09:45:43.346Z,13.60
2018-09-26T09:47:53.125Z,13.50
2018-09-26T09:49:58.938Z,13.40
2018-09-26T09:52:04.560Z,14.50
2018-09-26T09:54:10.565Z,13.93
2018-09-26T09:56:17.663Z,13.77
2018-09-26T09:58:25.395Z,13.00
2018-09-26T10:00:35.227Z,13.50
2018-09-26T10:02:41.491Z,13.30
2018-09-26T10:04:47.421Z,13.17
2018-09-26T10:06:53.178Z,12.37
2018-09-26T10:08:59.158Z,10.97
2018-09-26T10:11:04.863Z,12.40
2018-09-26T10:13:10.905Z,12.50
2018-09-26T10:15:17.997Z,12.20
2018-09-26T10:17:23.925Z,12.33
2018-09-26T10:19:29.992Z,12.10
2018-09-26T10:21:36.004Z,11.80
2018-09-26T10:23:41.858Z,12.83
2018-09-26T10:25:47.635Z,12.40
2018-09-26T10:27:53.551Z,12.10
2018-09-26T10:29:59.361Z,11.53
2018-09-26T10:32:05.239Z,10.07
2018-09-26T10:34:10.602Z,10.73
2018-09-26T10:36:16.508Z,10.23
2018-09-26T10:38:21.842Z,10.23
2018-09-26T10:40:27.425Z,9.70
2018-09-26T10:42:32.921Z,9.03
2018-09-26T10:44:38.971Z,10.03
2018-09-26T10:46:45.939Z,9.73
2018-09-26T10:48:51.883Z,10.80
2018-09-26T10:50:57.600Z,9.90
2018-09-26T10:53:03.350Z,9.20
2018-09-26T10:55:08.991Z,9.27
2018-09-26T10:57:15.052Z,9.10
2018-09-26T10:59:20.626Z,10.40
2018-09-26T11:01:26.706Z,8.63
2018-09-26T11:03:32.527Z,8.90
2018-09-26T11:05:38.526Z,10.03
2018-09-26T11:07:44.478Z,9.90
2018-09-26T11:09:50.647Z,8.77
2018-09-26T11:11:57.049Z,9.10
2018-09-26T11:14:03.296Z,8.70
2018-09-26T11:16:09.154Z,9.20
2018-09-26T11:18:15.365Z,9.50
2018-09-26T11:20:24.912Z,9.23
2018-09-26T11:22:30.985Z,8.10
2018-09-26T11:24:37.048Z,9.00
2018-09-26T11:26:42.922Z,8.43
2018-09-26T11:28:48.939Z,8.40
2018-09-26T11:30:54.843Z,7.77
2018-09-26T11:33:00.621Z,7.77
2018-09-26T11:35:06.739Z,8.70
2018-09-26T11:37:12.787Z,10.30
2018-09-26T11:39:18.844Z,8.37
2018-09-26T11:41:24.966Z,8.27
2018-09-26T11:43:30.619Z,8.33
2018-09-26T11:45:36.778Z,8.67
2018-09-26T11:47:50.898Z,8.60
2018-09-26T11:49:57.150Z,8.90
2018-09-26T11:52:03.430Z,9.70
2018-09-26T11:54:09.840Z,8.17
2018-09-26T11:56:15.398Z,8.67
2018-09-26T11:58:21.087Z,8.07
2018-09-26T12:00:26.528Z,8.10
2018-09-26T12:02:32.021Z,8.43
2018-09-26T12:04:37.547Z,9.10
2018-09-26T12:06:43.254Z,8.03
2018-09-26T12:08:48.232Z,8.37
2018-09-26T12:10:54.188Z,9.27
2018-09-26T12:12:59.397Z,8.37
2018-09-26T12:15:05.082Z,7.57
2018-09-26T12:17:10.562Z,8.17
2018-09-26T12:19:15.817Z,7.87
2018-09-26T12:21:30.353Z,8.33
2018-09-26T12:23:26.748Z,8.90
2018-09-26T12:25:32.003Z,7.90
2018-09-26T12:27:37.488Z,8.97
2018-09-26T12:29:42.920Z,7.10
2018-09-26T12:31:48.349Z,8.80
2018-09-26T12:33:53.571Z,7.80
2018-09-26T12:35:58.734Z,7.77
2018-09-26T12:38:03.830Z,7.67
2018-09-26T12:40:09.020Z,7.63
2018-09-26T12:42:14.023Z,8.40
2018-09-26T12:44:19.260Z,7.50
2018-09-26T12:46:24.675Z,8.20
2018-09-26T12:48:29.700Z,8.13
2018-09-26T12:50:35.271Z,7.53
2018-09-26T12:52:40.849Z,7.87
2018-09-26T12:54:46.131Z,7.60
2018-09-26T12:56:51.615Z,7.60
2018-09-26T12:58:56.941Z,6.93
2018-09-26T13:01:02.618Z,7.40
2018-09-26T13:03:08.454Z,7.67
2018-09-26T13:05:15.969Z,7.37
2018-09-26T13:07:21.205Z,8.10
2018-09-26T13:09:26.803Z,7.87
2018-09-26T13:11:32.074Z,7.57
2018-09-26T13:13:37.483Z,7.57
2018-09-26T13:15:42.735Z,8.07
2018-09-26T13:17:48.348Z,7.70
2018-09-26T13:19:53.290Z,7.00
2018-09-26T13:21:58.872Z,6.80
2018-09-26T13:24:05.008Z,7.70
2018-09-26T13:26:10.797Z,7.30
2018-09-26T13:28:16.640Z,7.27
2018-09-26T13:30:22.439Z,7.40
2018-09-26T13:32:27.943Z,7.57
2018-09-26T13:34:33.438Z,7.93
2018-09-26T13:36:38.829Z,7.77
2018-09-26T13:38:44.334Z,8.10
2018-09-26T13:40:49.700Z,8.27
2018-09-26T13:42:55.123Z,8.53
2018-09-26T13:45:00.823Z,7.80
2018-09-26T13:47:06.287Z,8.80
2018-09-26T13:49:12.340Z,7.90
2018-09-26T13:51:17.791Z,7.80
2018-09-26T13:53:23.134Z,7.97
2018-09-26T13:55:29.710Z,11.13
2018-09-26T13:57:34.936Z,10.70
2018-09-26T13:59:40.680Z,10.07
2018-09-26T14:01:46.061Z,11.37
2018-09-26T14:03:51.310Z,15.33
2018-09-26T14:05:56.736Z,12.43
2018-09-26T14:08:02.053Z,13.60
2018-09-26T14:10:07.627Z,16.47
2018-09-26T14:12:12.718Z,12.00
2018-09-26T14:14:18.099Z,10.80
2018-09-26T14:16:24.706Z,11.30
2018-09-26T14:18:31.004Z,11.43
2018-09-26T14:20:37.490Z,11.57
2018-09-26T14:22:44.147Z,10.97
2018-09-26T14:24:50.140Z,11.57
2018-09-26T14:26:56.024Z,11.60
2018-09-26T14:29:02.070Z,12.40
2018-09-26T14:31:07.456Z,13.23
2018-09-26T14:33:13.116Z,13.67
2018-09-26T14:35:18.979Z,14.50
2018-09-26T14:37:24.790Z,14.33
2018-09-26T14:39:30.234Z,13.57
2018-09-26T14:41:35.871Z,14.20
2018-09-26T14:43:41.161Z,14.97
2018-09-26T14:45:46.863Z,12.70
2018-09-26T14:47:52.228Z,13.40
2018-09-26T14:49:57.686Z,16.00
2018-09-26T14:52:02.637Z,14.57
2018-09-26T14:54:07.736Z,14.60
2018-09-26T14:56:13.679Z,16.47
2018-09-26T14:58:19.283Z,13.60
2018-09-26T15:00:24.527Z,15.10
2018-09-26T15:02:30.152Z,15.20
2018-09-26T15:04:36.208Z,16.53
2018-09-26T15:06:41.829Z,16.23
2018-09-26T15:08:47.075Z,14.77
2018-09-26T15:10:52.444Z,14.40
2018-09-26T15:12:57.626Z,16.23
2018-09-26T15:15:03.223Z,16.50
2018-09-26T15:17:08.683Z,15.73
2018-09-26T15:19:14.128Z,15.97
2018-09-26T15:21:19.962Z,15.17
2018-09-26T15:23:25.148Z,15.27
2018-09-26T15:25:30.402Z,14.73
2018-09-26T15:27:35.894Z,15.50
2018-09-26T15:29:41.279Z,15.97
2018-09-26T15:31:46.920Z,15.03
2018-09-26T15:33:52.435Z,16.33
2018-09-26T15:35:58.664Z,15.20
2018-09-26T15:38:03.991Z,14.13
2018-09-26T15:40:09.402Z,14.87
2018-09-26T15:42:14.800Z,14.27
2018-09-26T15:44:19.946Z,13.90
2018-09-26T15:46:25.645Z,14.17
2018-09-26T15:48:31.615Z,16.40
2018-09-26T15:50:38.092Z,13.70
2018-09-26T15:52:43.206Z,14.20
2018-09-26T15:54:48.678Z,14.23
2018-09-26T15:56:54.521Z,15.10
2018-09-26T15:59:00.108Z,13.50
2018-09-26T16:01:05.906Z,14.27
2018-09-26T16:03:11.374Z,14.37
2018-09-26T16:05:16.865Z,14.43
2018-09-26T16:07:22.186Z,14.97
2018-09-26T16:09:27.420Z,15.87
2018-09-26T16:11:33.079Z,14.70
2018-09-26T16:13:38.305Z,13.80
2018-09-26T16:15:43.735Z,15.00
2018-09-26T16:17:49.619Z,15.10
2018-09-26T16:19:55.152Z,13.50
2018-09-26T16:22:00.883Z,13.67
2018-09-26T16:24:05.923Z,14.90
2018-09-26T16:26:11.035Z,13.77
2018-09-26T16:28:16.528Z,13.97
2018-09-26T16:30:21.751Z,12.93
2018-09-26T16:32:27.114Z,14.73
2018-09-26T16:34:32.235Z,14.33
2018-09-26T16:36:37.965Z,13.40
2018-09-26T16:38:43.611Z,15.77
2018-09-26T16:40:48.893Z,14.33
2018-09-26T16:42:54.194Z,13.80
2018-09-26T16:44:59.400Z,14.30
2018-09-26T16:47:04.746Z,14.13
2018-09-26T16:49:09.811Z,14.27
2018-09-26T16:51:15.198Z,15.40
2018-09-26T16:53:20.240Z,14.43
2018-09-26T16:55:25.631Z,14.40
2018-09-26T16:57:30.742Z,14.73
2018-09-26T16:59:36.019Z,14.80
2018-09-26T17:01:41.403Z,15.03
2018-09-26T17:03:46.977Z,14.60
2018-09-26T17:05:52.443Z,15.50
2018-09-26T17:07:57.810Z,15.47
2018-09-26T17:10:03.052Z,15.23
2018-09-26T17:12:08.673Z,14.87
2018-09-26T17:14:14.290Z,14.93
2018-09-26T17:16:19.452Z,14.13
2018-09-26T17:18:24.911Z,14.57
2018-09-26T17:20:30.057Z,14.83
2018-09-26T17:22:35.311Z,14.87
2018-09-26T17:24:41.765Z,13.90
2018-09-26T17:26:47.152Z,13.40
2018-09-26T17:28:52.507Z,15.20
2018-09-26T17:30:58.170Z,14.73
2018-09-26T17:33:03.622Z,14.67
2018-09-26T17:35:08.792Z,13.53
2018-09-26T17:37:13.664Z,13.80
2018-09-26T17:39:19.137Z,14.47
2018-09-26T17:41:24.591Z,13.10
2018-09-26T17:43:33.310Z,13.83
2018-09-26T17:45:39.267Z,14.30
2018-09-26T17:47:44.612Z,12.93
2018-09-26T17:49:50.031Z,13.10
2018-09-26T17:51:55.439Z,14.60
2018-09-26T17:54:01.630Z,13.73
2018-09-26T17:56:07.298Z,14.13
2018-09-26T17:58:12.881Z,13.13
2018-09-26T18:00:18.663Z,13.50
2018-09-26T18:02:24.163Z,13.00
2018-09-26T18:04:29.539Z,12.70
2018-09-26T18:06:35.029Z,13.20
2018-09-26T18:08:40.713Z,13.23
2018-09-26T18:10:46.013Z,11.80
2018-09-26T18:12:51.515Z,13.47
2018-09-26T18:14:58.941Z,12.07
2018-09-26T18:17:04.340Z,12.13
2018-09-26T18:19:09.605Z,11.93
2018-09-26T18:21:15.095Z,11.77
2018-09-26T18:23:20.524Z,12.13
2018-09-26T18:25:26.197Z,12.17
2018-09-26T18:27:31.505Z,11.30
2018-09-26T18:29:36.962Z,11.17
2018-09-26T18:31:42.489Z,10.90
2018-09-26T18:33:48.133Z,11.63
2018-09-26T18:35:53.334Z,10.80
2018-09-26T18:37:58.743Z,11.47
2018-09-26T18:40:04.135Z,10.90
2018-09-26T18:42:09.499Z,9.97
2018-09-26T18:44:15.134Z,12.00
2018-09-26T18:46:20.822Z,9.07
2018-09-26T18:48:26.649Z,9.47
2018-09-26T18:50:32.376Z,10.30
2018-09-26T18:52:37.868Z,10.53
2018-09-26T18:54:43.374Z,10.57
2018-09-26T18:56:48.838Z,11.33
2018-09-26T18:58:54.385Z,11.37
2018-09-26T19:01:00.192Z,10.00
2018-09-26T19:03:06.560Z,10.00
2018-09-26T19:05:11.746Z,11.00
2018-09-26T19:07:17.215Z,10.60
2018-09-26T19:09:23.001Z,10.60
2018-09-26T19:11:28.317Z,10.87
2018-09-26T19:13:33.996Z,9.90
2018-09-26T19:15:39.511Z,11.67
2018-09-26T19:17:44.828Z,10.90
2018-09-26T19:19:50.783Z,9.00
2018-09-26T19:21:56.420Z,10.10
2018-09-26T19:24:01.661Z,10.87
2018-09-26T19:26:07.345Z,9.87
2018-09-26T19:28:13.385Z,10.13
2018-09-26T19:30:19.190Z,10.30
2018-09-26T19:32:25.514Z,10.03
2018-09-26T19:34:31.529Z,10.00
2018-09-26T19:36:37.146Z,9.40
2018-09-26T19:38:42.817Z,9.80
2018-09-26T19:40:48.665Z,10.87
2018-09-26T19:42:55.017Z,9.93
2018-09-26T19:45:01.051Z,10.30
2018-09-26T19:47:08.010Z,9.37
2018-09-26T19:49:13.852Z,10.70
2018-09-26T19:51:19.833Z,9.27
2018-09-26T19:53:28.595Z,9.93
2018-09-26T19:55:34.415Z,9.63
2018-09-26T19:57:40.128Z,9.73
2018-09-26T19:59:45.846Z,9.53
2018-09-26T20:01:51.554Z,10.03
2018-09-26T20:03:57.570Z,10.53
2018-09-26T20:06:04.536Z,10.50
2018-09-26T20:08:10.393Z,9.60
2018-09-26T20:10:16.742Z,10.90
2018-09-26T20:12:23.115Z,9.37
2018-09-26T20:14:29.560Z,9.50
2018-09-26T20:16:35.841Z,10.10
2018-09-26T20:18:41.794Z,8.20
2018-09-26T20:20:47.683Z,9.30
2018-09-26T20:22:53.476Z,8.80
2018-09-26T20:25:00.034Z,9.50
2018-09-26T20:27:07.337Z,9.73
2018-09-26T20:29:14.521Z,9.97
2018-09-26T20:31:20.485Z,9.90
2018-09-26T20:33:29.679Z,8.93
2018-09-26T20:35:44.337Z,8.23
2018-09-26T20:37:50.540Z,8.97
2018-09-26T20:39:56.416Z,8.90
2018-09-26T20:42:02.436Z,8.83
2018-09-26T20:44:08.429Z,8.87
2018-09-26T20:46:14.129Z,10.13
2018-09-26T20:48:20.173Z,8.47
2018-09-26T20:50:27.528Z,8.63
2018-09-26T20:52:33.842Z,8.73
2018-09-26T20:54:39.676Z,7.90
2018-09-26T20:56:45.529Z,8.30
2018-09-26T20:58:52.054Z,9.30
2018-09-26T21:00:57.980Z,8.83
2018-09-26T21:03:04.228Z,8.00
2018-09-26T21:05:10.501Z,8.90
2018-09-26T21:07:19.137Z,7.70
2018-09-26T21:09:26.324Z,8.37
2018-09-26T21:11:32.511Z,8.20
2018-09-26T21:13:38.453Z,7.80
2018-09-26T21:15:43.904Z,8.50
2018-09-26T21:17:49.763Z,7.70
2018-09-26T21:19:55.953Z,7.50
2018-09-26T21:22:01.807Z,8.03
2018-09-26T21:24:07.840Z,7.93
2018-09-26T21:26:13.664Z,8.03
2018-09-26T21:28:19.431Z,7.60
2018-09-26T21:30:25.854Z,7.87
2018-09-26T21:32:32.714Z,8.37
2018-09-26T21:34:39.089Z,9.03
2018-09-26T21:36:45.519Z,8.60
2018-09-26T21:38:52.267Z,7.87
2018-09-26T21:40:57.721Z,8.53
2018-09-26T21:43:03.534Z,8.87
2018-09-26T21:45:09.256Z,9.43
2018-09-26T21:47:15.128Z,8.30
2018-09-26T21:49:20.585Z,7.73
2018-09-26T21:51:26.365Z,8.67
2018-09-26T21:53:33.620Z,8.43
2018-09-26T21:55:39.071Z,9.00
2018-09-26T21:57:45.229Z,7.63
2018-09-26T21:59:50.963Z,8.13
2018-09-26T22:01:56.158Z,8.37
2018-09-26T22:04:01.552Z,8.83
2018-09-26T22:06:08.045Z,8.80
2018-09-26T22:08:13.313Z,7.50
2018-09-26T22:10:18.804Z,8.50
2018-09-26T22:12:24.520Z,7.57
2018-09-26T22:14:30.449Z,8.30
2018-09-26T22:16:35.940Z,7.73
2018-09-26T22:18:41.625Z,8.50
2018-09-26T22:22:57.178Z,8.07
2018-09-26T22:25:04.543Z,6.63
2018-09-26T22:27:09.870Z,7.83
2018-09-26T22:29:16.702Z,7.63
2018-09-26T22:31:22.734Z,8.83
2018-09-26T22:33:28.642Z,8.70
2018-09-26T22:35:34.509Z,9.10
2018-09-26T22:37:40.504Z,8.57
2018-09-26T22:39:45.961Z,8.37
2018-09-26T22:41:54.940Z,8.40
2018-09-26T22:44:00.779Z,9.67
2018-09-26T22:46:06.659Z,10.33
2018-09-26T22:48:13.532Z,9.80
2018-09-26T22:50:18.948Z,9.70
2018-09-26T22:52:24.965Z,8.20
2018-09-26T22:54:30.632Z,8.60
2018-09-26T22:56:36.040Z,8.83
2018-09-26T22:58:42.943Z,9.70
2018-09-26T23:00:52.279Z,9.50
2018-09-26T23:02:58.057Z,8.40
2018-09-26T23:05:08.336Z,9.33
2018-09-26T23:07:14.487Z,9.30
2018-09-26T23:09:20.456Z,9.60
2018-09-26T23:11:26.417Z,8.60
2018-09-26T23:13:31.955Z,9.80
2018-09-26T23:15:38.152Z,8.13
2018-09-26T23:17:44.413Z,9.57
2018-09-26T23:19:50.019Z,8.80
2018-09-26T23:21:55.486Z,9.33
2018-09-26T23:24:02.597Z,8.83
2018-09-26T23:26:08.130Z,8.70
2018-09-26T23:28:13.510Z,9.70
2018-09-26T23:30:18.925Z,8.73
2018-09-26T23:32:24.214Z,8.60
2018-09-26T23:34:30.061Z,8.53
2018-09-26T23:36:35.580Z,8.73
2018-09-26T23:38:40.997Z,8.20
2018-09-26T23:40:47.136Z,8.03
2018-09-26T23:42:52.918Z,7.80
2018-09-26T23:44:58.215Z,8.00
2018-09-26T23:47:04.180Z,8.30
2018-09-26T23:49:10.470Z,7.80
2018-09-26T23:51:16.349Z,7.00
2018-09-26T23:53:22.292Z,8.27
2018-09-26T23:55:30.848Z,8.37
2018-09-26T23:57:36.350Z,8.07
2018-09-26T23:59:41.685Z,8.53
